Time;durP1;ratioP1;P1;durP2;ratioP2;P2;SDS_P1;SDS_P2;PMS_P1;PMS_P2;Temp;Humidity;BMP_temperature;BMP_pressure;BME280_temperature;BME280_humidity;BME280_pressure;Samples;Min_cycle;Max_cycle;Signal;HPM_P1;HPM_P2
2022/12/19 00:00:18;;;;;;;;;;;-0.40;99.90;;;;;;4858283;29;20308;-73
2022/12/19 00:02:43;;;;;;;;;;;-0.40;99.90;;;;;;4857864;29;19924;-73
2022/12/19 00:05:09;;;;;;;;;;;-0.40;99.90;;;;;;4874280;29;19970;-73
2022/12/19 00:07:34;;;;;;;;;;;-0.40;99.90;;;;;;4873883;29;19980;-73
2022/12/19 00:10:00;;;;;;;;;;;-0.30;99.90;;;;;;4873333;29;19987;-73
2022/12/19 00:12:25;;;;;;;;;;;-0.30;99.90;;;;;;4842949;29;19936;-74
2022/12/19 00:14:51;;;;;;;;;;;-0.30;99.90;;;;;;4873841;29;19928;-73
2022/12/19 00:17:16;;;;;;;;;;;-0.30;99.90;;;;;;4858565;29;20047;-73
2022/12/19 00:19:42;;;;;;;;;;;-0.30;99.90;;;;;;4868895;29;19928;-73
2022/12/19 00:22:08;;;;;;;;;;;-0.30;99.90;;;;;;4874614;29;19927;-73
2022/12/19 00:24:33;;;;;;;;;;;-0.30;99.90;;;;;;4864643;29;20269;-73
2022/12/19 00:26:59;;;;;;;;;;;-0.20;99.90;;;;;;4872368;29;19930;-73
2022/12/19 00:29:24;;;;;;;;;;;-0.20;99.90;;;;;;4857295;29;20006;-73
2022/12/19 00:31:50;;;;;;;;;;;-0.20;99.90;;;;;;4842960;29;19928;-73
2022/12/19 00:34:15;;;;;;;;;;;-0.20;99.90;;;;;;4834480;29;19928;-73
2022/12/19 00:36:41;;;;;;;;;;;-0.10;99.90;;;;;;4845572;29;19931;-73
2022/12/19 00:39:07;;;;;;;;;;;-0.10;99.90;;;;;;4873802;29;19975;-74
2022/12/19 00:41:33;;;;;;;;;;;-0.10;99.90;;;;;;4873794;29;19942;-73
2022/12/19 00:44:03;;;;;;;;;;;-0.10;99.90;;;;;;4857587;29;19984;-73
2022/12/19 00:46:30;;;;;;;;;;;-0.10;99.90;;;;;;4873110;29;19928;-73
2022/12/19 00:48:56;;;;;;;;;;;-0.10;99.90;;;;;;4854082;29;19927;-73
2022/12/19 00:51:23;;;;;;;;;;;-0.10;99.90;;;;;;4858163;29;19935;-74
2022/12/19 00:53:49;;;;;;;;;;;-0.10;99.90;;;;;;4873091;29;19931;-74
2022/12/19 00:56:16;;;;;;;;;;;-0.10;99.90;;;;;;4853923;29;20002;-73
2022/12/19 00:58:41;;;;;;;;;;;-0.10;99.90;;;;;;4869945;29;19924;-73
2022/12/19 01:01:09;;;;;;;;;;;-0.10;99.90;;;;;;4842924;29;19950;-74
2022/12/19 01:03:34;;;;;;;;;;;-0.10;99.90;;;;;;4880896;29;19923;-74
2022/12/19 01:06:00;;;;;;;;;;;-0.10;99.90;;;;;;4853909;29;19928;-74
2022/12/19 01:08:26;;;;;;;;;;;0.00;99.90;;;;;;4852316;29;19924;-73
2022/12/19 01:10:51;;;;;;;;;;;0.00;99.90;;;;;;4870077;29;19959;-74
2022/12/19 01:13:18;;;;;;;;;;;0.00;99.90;;;;;;4857327;29;20584;-73
2022/12/19 01:15:44;;;;;;;;;;;0.00;99.90;;;;;;4881402;29;19930;-73
2022/12/19 01:18:09;;;;;;;;;;;0.00;99.90;;;;;;4872931;29;19928;-73
2022/12/19 01:20:39;;;;;;;;;;;0.00;99.90;;;;;;4857538;29;19936;-73
2022/12/19 01:23:05;;;;;;;;;;;0.10;99.90;;;;;;4852321;29;20024;-73
2022/12/19 01:25:32;;;;;;;;;;;0.00;99.90;;;;;;4873012;29;19928;-73
2022/12/19 01:27:57;;;;;;;;;;;0.00;99.90;;;;;;4857515;29;20039;-73
2022/12/19 01:30:23;;;;;;;;;;;0.10;99.90;;;;;;4857305;29;20010;-74
2022/12/19 01:32:49;;;;;;;;;;;0.10;99.90;;;;;;4857792;29;20442;-74
2022/12/19 01:35:14;;;;;;;;;;;0.10;99.90;;;;;;4854091;29;20015;-74
2022/12/19 01:37:40;;;;;;;;;;;0.10;99.90;;;;;;4857389;29;19931;-73
2022/12/19 01:40:06;;;;;;;;;;;0.10;99.90;;;;;;4872409;29;19992;-73
2022/12/19 01:42:35;;;;;;;;;;;0.10;99.90;;;;;;4862224;29;19928;-73
2022/12/19 01:45:07;;;;;;;;;;;0.10;99.90;;;;;;4857151;29;19928;-73
2022/12/19 01:47:53;;;;;;;;;;;0.10;99.90;;;;;;4854189;29;19976;-73
2022/12/19 01:50:31;;;;;;;;;;;0.10;99.90;;;;;;4872043;29;20075;-73
2022/12/19 01:52:57;;;;;;;;;;;0.10;99.90;;;;;;4872535;29;19935;-73
2022/12/19 01:55:23;;;;;;;;;;;0.00;99.90;;;;;;4851382;29;20071;-73
2022/12/19 01:57:48;;;;;;;;;;;0.10;99.90;;;;;;4872420;29;19980;-73
2022/12/19 02:00:14;;;;;;;;;;;0.10;99.90;;;;;;4866653;29;20285;-73
2022/12/19 02:02:46;;;;;;;;;;;0.10;99.90;;;;;;4851198;29;19928;-73
2022/12/19 02:05:11;;;;;;;;;;;0.10;99.90;;;;;;4856750;29;19990;-73
2022/12/19 02:07:39;;;;;;;;;;;0.10;99.90;;;;;;4842322;29;20388;-74
2022/12/19 02:10:05;;;;;;;;;;;0.10;99.90;;;;;;4856572;29;19928;-74
2022/12/19 02:12:34;;;;;;;;;;;0.20;99.90;;;;;;4849672;29;19934;-74
2022/12/19 02:15:00;;;;;;;;;;;0.20;99.90;;;;;;4872211;29;19924;-74
2022/12/19 02:17:29;;;;;;;;;;;0.20;99.90;;;;;;4845492;29;20048;-73
2022/12/19 02:19:54;;;;;;;;;;;0.20;99.90;;;;;;4875235;29;19932;-73
2022/12/19 02:22:26;;;;;;;;;;;0.20;99.90;;;;;;4874824;29;19984;-74
2022/12/19 02:24:59;;;;;;;;;;;0.20;99.90;;;;;;4860247;29;20018;-74
2022/12/19 02:27:43;;;;;;;;;;;0.20;99.90;;;;;;4860108;29;19982;-74
2022/12/19 02:30:14;;;;;;;;;;;0.20;99.90;;;;;;4875357;29;20399;-74
2022/12/19 02:33:03;;;;;;;;;;;0.20;99.90;;;;;;4870156;29;19931;-73
2022/12/19 02:35:32;;;;;;;;;;;0.20;99.90;;;;;;4874170;29;20321;-74
2022/12/19 02:37:57;;;;;;;;;;;0.20;99.90;;;;;;4875718;29;19923;-74
2022/12/19 02:40:26;;;;;;;;;;;0.30;99.90;;;;;;4875360;29;19931;-74
2022/12/19 02:42:55;;;;;;;;;;;0.20;99.90;;;;;;4859464;29;19927;-73
2022/12/19 02:45:21;;;;;;;;;;;0.30;99.90;;;;;;4875108;29;19934;-74
2022/12/19 02:47:47;;;;;;;;;;;0.30;99.90;;;;;;4872120;29;20281;-73
2022/12/19 02:50:13;;;;;;;;;;;0.30;99.90;;;;;;4870412;29;20031;-74
2022/12/19 02:52:38;;;;;;;;;;;0.30;99.90;;;;;;4872276;29;20002;-73
2022/12/19 02:55:09;;;;;;;;;;;0.40;99.90;;;;;;4872226;29;19932;-74
2022/12/19 02:57:41;;;;;;;;;;;0.40;99.90;;;;;;4873965;29;19931;-73
2022/12/19 03:00:07;;;;;;;;;;;0.40;99.90;;;;;;4859641;29;20562;-74
2022/12/19 03:02:36;;;;;;;;;;;0.40;99.90;;;;;;4866297;29;19925;-73
2022/12/19 03:05:13;;;;;;;;;;;0.40;99.90;;;;;;4871775;29;19934;-74
2022/12/19 03:07:38;;;;;;;;;;;0.40;99.90;;;;;;4874424;29;20312;-74
2022/12/19 03:10:10;;;;;;;;;;;0.40;99.90;;;;;;4859474;29;19924;-74
2022/12/19 03:12:59;;;;;;;;;;;0.50;99.90;;;;;;4859834;29;20601;-74
2022/12/19 03:15:25;;;;;;;;;;;0.50;99.90;;;;;;4874840;29;19939;-74
2022/12/19 03:17:51;;;;;;;;;;;0.50;99.90;;;;;;4859110;29;19923;-74
2022/12/19 03:20:46;;;;;;;;;;;0.50;99.90;;;;;;4852207;29;20687;-74
2022/12/19 03:23:12;;;;;;;;;;;0.60;99.90;;;;;;4873168;29;19934;-73
2022/12/19 03:25:39;;;;;;;;;;;0.60;99.90;;;;;;4857979;29;19932;-74
2022/12/19 03:28:09;;;;;;;;;;;0.60;99.90;;;;;;4870604;29;19924;-73
2022/12/19 03:30:35;;;;;;;;;;;0.70;99.90;;;;;;4883130;29;19947;-73
2022/12/19 03:33:01;;;;;;;;;;;0.70;99.90;;;;;;4874504;29;20336;-73
2022/12/19 03:35:28;;;;;;;;;;;0.70;99.90;;;;;;4858360;29;19923;-73
2022/12/19 03:37:56;;;;;;;;;;;0.70;99.90;;;;;;4870454;29;19939;-73
2022/12/19 03:40:24;;;;;;;;;;;0.70;99.90;;;;;;4873862;29;20048;-73
2022/12/19 03:43:09;;;;;;;;;;;0.70;99.90;;;;;;4858982;29;20481;-74
2022/12/19 03:45:38;;;;;;;;;;;0.80;99.90;;;;;;4874808;29;20277;-73
2022/12/19 03:48:06;;;;;;;;;;;0.80;99.90;;;;;;4874013;29;19979;-73
2022/12/19 03:50:38;;;;;;;;;;;0.80;99.90;;;;;;4869140;29;19924;-74
2022/12/19 03:53:12;;;;;;;;;;;0.80;99.90;;;;;;4870032;29;20332;-73
2022/12/19 03:55:40;;;;;;;;;;;0.80;99.90;;;;;;4868898;29;19931;-73
2022/12/19 03:58:08;;;;;;;;;;;0.80;99.90;;;;;;4872196;29;19927;-73
2022/12/19 04:00:35;;;;;;;;;;;0.80;99.90;;;;;;4868529;29;19992;-73
2022/12/19 04:03:01;;;;;;;;;;;0.90;99.90;;;;;;4858791;29;19967;-73
2022/12/19 04:05:27;;;;;;;;;;;0.90;99.90;;;;;;4856595;29;19967;-74
2022/12/19 04:07:54;;;;;;;;;;;0.90;99.90;;;;;;4858334;29;19968;-73
2022/12/19 04:10:21;;;;;;;;;;;0.90;99.90;;;;;;4873567;29;20368;-73
2022/12/19 04:12:49;;;;;;;;;;;1.00;99.90;;;;;;4873421;29;20030;-73
2022/12/19 04:15:15;;;;;;;;;;;1.00;99.90;;;;;;4857707;29;19936;-74
2022/12/19 04:17:44;;;;;;;;;;;1.00;99.90;;;;;;4873611;29;20349;-73
2022/12/19 04:20:11;;;;;;;;;;;1.00;99.90;;;;;;4857883;29;19988;-73
2022/12/19 04:22:39;;;;;;;;;;;1.00;99.90;;;;;;4873763;29;20295;-74
2022/12/19 04:25:06;;;;;;;;;;;1.10;99.90;;;;;;4857842;29;19927;-74
2022/12/19 04:27:33;;;;;;;;;;;1.10;99.90;;;;;;4872586;29;19936;-74
2022/12/19 04:29:59;;;;;;;;;;;1.10;99.90;;;;;;4872437;29;19924;-74
2022/12/19 04:32:26;;;;;;;;;;;1.20;99.90;;;;;;4857707;29;20002;-74
2022/12/19 04:34:51;;;;;;;;;;;1.20;99.90;;;;;;4864617;29;19927;-74
2022/12/19 04:37:17;;;;;;;;;;;1.20;99.90;;;;;;4879926;29;20015;-73
2022/12/19 04:39:42;;;;;;;;;;;1.20;99.90;;;;;;4873217;29;20022;-73
2022/12/19 04:42:08;;;;;;;;;;;1.20;99.90;;;;;;4867188;29;19980;-73
2022/12/19 04:44:34;;;;;;;;;;;1.30;99.90;;;;;;4873280;29;19924;-73
2022/12/19 04:46:59;;;;;;;;;;;1.30;99.90;;;;;;4873404;29;19923;-73
2022/12/19 04:49:25;;;;;;;;;;;1.30;99.90;;;;;;4873620;29;19924;-73
2022/12/19 04:51:51;;;;;;;;;;;1.40;99.90;;;;;;4857197;29;19971;-74
2022/12/19 04:54:16;;;;;;;;;;;1.40;99.90;;;;;;4873493;29;20561;-74
2022/12/19 04:56:42;;;;;;;;;;;1.40;99.90;;;;;;4854235;29;20349;-73
2022/12/19 04:59:08;;;;;;;;;;;1.40;99.90;;;;;;4874167;29;19923;-74
2022/12/19 05:01:37;;;;;;;;;;;1.50;99.90;;;;;;4869545;29;19975;-74
2022/12/19 05:04:02;;;;;;;;;;;1.50;99.90;;;;;;4857640;29;20335;-74
2022/12/19 05:06:28;;;;;;;;;;;1.50;99.90;;;;;;4866604;29;19931;-73
2022/12/19 05:08:54;;;;;;;;;;;1.50;99.90;;;;;;4854984;29;20303;-73
2022/12/19 05:11:20;;;;;;;;;;;1.60;99.90;;;;;;4855606;29;19924;-74
2022/12/19 05:13:45;;;;;;;;;;;1.60;99.90;;;;;;4857702;29;19935;-74
2022/12/19 05:16:11;;;;;;;;;;;1.60;99.90;;;;;;4872789;29;19931;-73
2022/12/19 05:18:36;;;;;;;;;;;1.60;99.90;;;;;;4856898;29;20400;-73
2022/12/19 05:21:02;;;;;;;;;;;1.70;99.90;;;;;;4856461;29;19935;-73
2022/12/19 05:23:28;;;;;;;;;;;1.70;99.90;;;;;;4853619;29;19930;-74
2022/12/19 05:25:56;;;;;;;;;;;1.70;99.90;;;;;;4868865;29;19987;-74
2022/12/19 05:28:22;;;;;;;;;;;1.80;99.90;;;;;;4872745;29;20353;-74
2022/12/19 05:30:47;;;;;;;;;;;1.80;99.90;;;;;;4856437;29;19980;-74
2022/12/19 05:33:13;;;;;;;;;;;1.80;99.90;;;;;;4857186;29;19938;-73
2022/12/19 05:35:38;;;;;;;;;;;1.80;99.90;;;;;;4844959;29;19928;-74
2022/12/19 05:38:04;;;;;;;;;;;1.80;99.90;;;;;;4872621;29;19927;-74
2022/12/19 05:40:29;;;;;;;;;;;1.80;99.90;;;;;;4871993;29;19935;-73
2022/12/19 05:42:55;;;;;;;;;;;1.90;99.90;;;;;;4850952;29;19967;-74
2022/12/19 05:45:21;;;;;;;;;;;1.80;99.90;;;;;;4845302;29;19995;-74
2022/12/19 05:47:46;;;;;;;;;;;1.80;99.90;;;;;;4850120;29;19988;-74
2022/12/19 05:50:13;;;;;;;;;;;1.80;99.90;;;;;;4868306;29;19959;-74
2022/12/19 05:52:38;;;;;;;;;;;1.90;99.90;;;;;;4868433;29;20428;-74
2022/12/19 05:55:05;;;;;;;;;;;1.90;99.90;;;;;;4839817;29;20014;-74
2022/12/19 05:57:30;;;;;;;;;;;1.90;99.90;;;;;;4856336;29;19927;-74
2022/12/19 05:59:56;;;;;;;;;;;1.90;99.90;;;;;;4860418;29;20436;-74
2022/12/19 06:02:22;;;;;;;;;;;1.90;99.90;;;;;;4857701;29;19924;-74
2022/12/19 06:04:50;;;;;;;;;;;1.90;99.90;;;;;;4873453;29;19948;-74
2022/12/19 06:07:16;;;;;;;;;;;2.00;99.90;;;;;;4858940;29;19928;-74
2022/12/19 06:09:41;;;;;;;;;;;2.00;99.90;;;;;;4855891;29;19928;-75
2022/12/19 06:12:07;;;;;;;;;;;2.10;99.90;;;;;;4851533;29;19980;-74
2022/12/19 06:14:32;;;;;;;;;;;2.10;99.90;;;;;;4851078;29;19967;-75
2022/12/19 06:17:00;;;;;;;;;;;2.10;99.90;;;;;;4856174;29;20753;-75
2022/12/19 06:19:26;;;;;;;;;;;2.20;99.90;;;;;;4857075;29;20369;-75
2022/12/19 06:21:51;;;;;;;;;;;2.20;99.90;;;;;;4864924;29;19928;-75
2022/12/19 06:24:17;;;;;;;;;;;2.20;99.90;;;;;;4837627;29;20379;-74
2022/12/19 06:26:43;;;;;;;;;;;2.30;99.90;;;;;;4874259;29;19931;-74
2022/12/19 06:29:08;;;;;;;;;;;2.30;99.90;;;;;;4890610;29;19928;-75
2022/12/19 06:31:34;;;;;;;;;;;2.30;99.90;;;;;;4837020;29;20002;-75
2022/12/19 06:34:00;;;;;;;;;;;2.30;99.90;;;;;;4833304;29;20506;-75
2022/12/19 06:36:26;;;;;;;;;;;2.40;99.90;;;;;;4859559;29;19978;-75
2022/12/19 06:38:53;;;;;;;;;;;2.40;99.90;;;;;;4860688;29;20340;-75
2022/12/19 06:44:04;;;;;;;;;;;2.50;99.90;;;;;;4861323;29;19924;-75
2022/12/19 06:46:30;;;;;;;;;;;2.50;99.90;;;;;;4874968;29;20376;-75
2022/12/19 06:48:56;;;;;;;;;;;2.50;99.90;;;;;;4859999;29;19932;-75
2022/12/19 06:51:21;;;;;;;;;;;2.60;99.90;;;;;;4875376;29;19928;-75
2022/12/19 06:53:47;;;;;;;;;;;2.60;99.90;;;;;;4839054;29;20341;-75
2022/12/19 06:56:14;;;;;;;;;;;2.60;99.90;;;;;;4859855;29;19971;-75
2022/12/19 06:58:40;;;;;;;;;;;2.70;99.90;;;;;;4864786;29;19939;-75
2022/12/19 07:01:05;;;;;;;;;;;2.70;99.90;;;;;;4875065;29;20380;-75
2022/12/19 07:03:35;;;;;;;;;;;2.70;99.90;;;;;;4849900;29;19928;-76
2022/12/19 07:06:00;;;;;;;;;;;2.80;99.90;;;;;;4875315;29;20336;-76
2022/12/19 07:08:28;;;;;;;;;;;2.80;99.90;;;;;;4875483;29;20070;-76
2022/12/19 07:10:54;;;;;;;;;;;2.90;99.90;;;;;;4856664;29;19931;-75
2022/12/19 07:13:20;;;;;;;;;;;2.90;99.90;;;;;;4876318;29;19928;-75
2022/12/19 07:15:49;;;;;;;;;;;3.00;99.90;;;;;;4876032;29;20035;-76
2022/12/19 07:18:15;;;;;;;;;;;3.00;99.90;;;;;;4844009;29;20019;-76
2022/12/19 07:20:41;;;;;;;;;;;3.00;99.90;;;;;;4858818;29;20030;-75
2022/12/19 07:23:12;;;;;;;;;;;3.10;99.90;;;;;;4863696;29;19976;-75
2022/12/19 07:25:38;;;;;;;;;;;3.20;99.90;;;;;;4875521;29;19932;-75
2022/12/19 07:28:04;;;;;;;;;;;3.20;99.90;;;;;;4876873;29;19975;-76
2022/12/19 07:30:29;;;;;;;;;;;3.40;99.90;;;;;;4844887;29;19927;-76
2022/12/19 07:32:55;;;;;;;;;;;3.50;99.90;;;;;;4872210;29;19963;-76
2022/12/19 07:35:21;;;;;;;;;;;3.50;99.90;;;;;;4874828;29;20100;-76
2022/12/19 07:37:47;;;;;;;;;;;3.60;99.90;;;;;;4875273;29;19932;-75
2022/12/19 07:40:13;;;;;;;;;;;3.70;99.90;;;;;;4857188;29;20136;-76
2022/12/19 07:42:38;;;;;;;;;;;3.70;99.90;;;;;;4859525;29;19938;-76
2022/12/19 07:45:04;;;;;;;;;;;3.70;99.90;;;;;;4862106;29;19927;-76
2022/12/19 07:47:30;;;;;;;;;;;3.80;99.90;;;;;;4855670;29;19967;-77
2022/12/19 07:49:55;;;;;;;;;;;3.80;99.90;;;;;;4874937;29;19962;-77
2022/12/19 07:52:21;;;;;;;;;;;3.90;99.90;;;;;;4875502;29;19924;-77
2022/12/19 07:54:47;;;;;;;;;;;3.90;99.90;;;;;;4842459;29;20389;-77
2022/12/19 07:57:12;;;;;;;;;;;4.00;99.90;;;;;;4874217;29;19979;-77
2022/12/19 07:59:38;;;;;;;;;;;4.00;99.90;;;;;;4858921;29;19935;-76
2022/12/19 08:02:03;;;;;;;;;;;4.10;99.90;;;;;;4872837;29;20334;-76
2022/12/19 08:04:35;;;;;;;;;;;4.10;99.90;;;;;;4861898;29;19983;-76
2022/12/19 08:07:01;;;;;;;;;;;4.10;99.90;;;;;;4857895;29;19927;-77
2022/12/19 08:09:27;;;;;;;;;;;4.20;99.90;;;;;;4873275;29;19931;-77
2022/12/19 08:11:53;;;;;;;;;;;4.20;99.90;;;;;;4863090;29;20377;-77
2022/12/19 08:14:18;;;;;;;;;;;4.30;99.90;;;;;;4871930;29;19923;-76
2022/12/19 08:16:44;;;;;;;;;;;4.30;99.90;;;;;;4854593;29;19932;-77
2022/12/19 08:19:09;;;;;;;;;;;4.30;99.90;;;;;;4858458;29;19928;-77
2022/12/19 08:21:35;;;;;;;;;;;4.30;99.90;;;;;;4872693;29;20079;-78
2022/12/19 08:24:01;;;;;;;;;;;4.40;99.90;;;;;;4844385;29;20031;-78
2022/12/19 08:26:26;;;;;;;;;;;4.40;99.90;;;;;;4841739;29;19931;-78
2022/12/19 08:28:53;;;;;;;;;;;4.40;99.90;;;;;;4840337;29;19954;-78
2022/12/19 08:31:19;;;;;;;;;;;4.50;99.90;;;;;;4864763;29;19978;-77
2022/12/19 08:33:46;;;;;;;;;;;4.50;99.90;;;;;;4873859;29;20547;-77
2022/12/19 08:36:13;;;;;;;;;;;4.50;99.90;;;;;;4874343;29;19939;-78
2022/12/19 08:38:38;;;;;;;;;;;4.50;99.90;;;;;;4858398;29;19935;-77
2022/12/19 08:41:04;;;;;;;;;;;4.60;99.90;;;;;;4856722;29;20032;-78
2022/12/19 08:43:30;;;;;;;;;;;4.60;99.90;;;;;;4867465;29;19928;-76
2022/12/19 08:45:56;;;;;;;;;;;4.60;99.90;;;;;;4864862;29;19940;-76
2022/12/19 08:48:22;;;;;;;;;;;4.70;99.90;;;;;;4851663;29;20100;-76
2022/12/19 08:50:52;;;;;;;;;;;4.70;99.90;;;;;;4869692;29;20376;-77
2022/12/19 08:53:18;;;;;;;;;;;4.70;99.90;;;;;;4873196;29;20388;-77
2022/12/19 08:55:44;;;;;;;;;;;4.80;99.90;;;;;;4842350;29;19924;-76
2022/12/19 08:58:10;;;;;;;;;;;4.80;99.90;;;;;;4857961;29;20443;-78
2022/12/19 09:00:35;;;;;;;;;;;4.80;99.90;;;;;;4857702;29;19928;-77
2022/12/19 09:03:01;;;;;;;;;;;4.90;99.90;;;;;;4841911;29;20232;-77
2022/12/19 09:05:26;;;;;;;;;;;4.90;99.90;;;;;;4868130;29;20453;-78
2022/12/19 09:07:52;;;;;;;;;;;4.90;99.90;;;;;;4842909;29;20387;-77
2022/12/19 09:10:19;;;;;;;;;;;4.90;99.90;;;;;;4872420;29;19931;-77
2022/12/19 09:12:44;;;;;;;;;;;5.00;99.90;;;;;;4857393;29;20455;-77
2022/12/19 09:15:10;;;;;;;;;;;5.00;99.90;;;;;;4857416;29;19930;-77
2022/12/19 09:17:36;;;;;;;;;;;5.00;99.90;;;;;;4857836;29;19928;-77
2022/12/19 09:20:01;;;;;;;;;;;5.00;99.90;;;;;;4856112;29;20732;-77
2022/12/19 09:22:27;;;;;;;;;;;5.10;99.90;;;;;;4858005;29;20149;-77
2022/12/19 09:24:53;;;;;;;;;;;5.10;99.90;;;;;;4855793;29;19924;-77
2022/12/19 09:27:19;;;;;;;;;;;5.10;99.90;;;;;;4855177;29;19967;-76
2022/12/19 09:29:45;;;;;;;;;;;5.20;99.90;;;;;;4840079;29;19923;-76
2022/12/19 09:32:11;;;;;;;;;;;5.20;99.90;;;;;;4850333;29;20134;-77
2022/12/19 09:34:37;;;;;;;;;;;5.30;99.90;;;;;;4845006;29;19928;-77
2022/12/19 09:37:03;;;;;;;;;;;5.30;99.90;;;;;;4860032;29;20357;-77
2022/12/19 09:39:28;;;;;;;;;;;5.40;99.90;;;;;;4854000;29;19931;-77
2022/12/19 09:41:57;;;;;;;;;;;5.40;99.90;;;;;;4865617;29;20023;-77
2022/12/19 09:44:23;;;;;;;;;;;5.50;99.90;;;;;;4861649;29;20006;-77
2022/12/19 09:47:00;;;;;;;;;;;5.50;99.90;;;;;;4863676;29;19931;-77
2022/12/19 09:49:35;;;;;;;;;;;5.60;99.90;;;;;;4878339;29;19935;-77
2022/12/19 09:52:06;;;;;;;;;;;5.70;99.90;;;;;;4863170;29;20403;-77
2022/12/19 09:54:50;;;;;;;;;;;5.70;99.90;;;;;;4873481;29;19983;-77
2022/12/19 09:57:22;;;;;;;;;;;5.80;99.90;;;;;;4877935;29;19977;-77
2022/12/19 09:59:52;;;;;;;;;;;5.80;99.90;;;;;;4860420;29;20376;-77
2022/12/19 10:02:37;;;;;;;;;;;5.90;99.90;;;;;;4863243;29;20439;-77
2022/12/19 10:05:09;;;;;;;;;;;6.00;99.90;;;;;;4872170;29;20424;-77
2022/12/19 10:07:35;;;;;;;;;;;6.10;99.90;;;;;;4875558;29;19928;-77
2022/12/19 10:10:00;;;;;;;;;;;6.10;99.90;;;;;;4847526;29;20423;-77
2022/12/19 10:12:40;;;;;;;;;;;6.20;99.90;;;;;;4878487;29;19974;-76
2022/12/19 10:15:14;;;;;;;;;;;6.40;99.90;;;;;;4863256;29;19924;-77
2022/12/19 10:17:49;;;;;;;;;;;6.40;99.90;;;;;;4863211;29;19924;-76
2022/12/19 10:20:18;;;;;;;;;;;6.50;99.90;;;;;;4869895;29;19942;-76
2022/12/19 10:22:50;;;;;;;;;;;6.60;99.90;;;;;;4859613;29;20491;-76
2022/12/19 10:25:36;;;;;;;;;;;6.60;99.90;;;;;;4872742;29;19931;-76
2022/12/19 10:28:05;;;;;;;;;;;6.70;99.90;;;;;;4877071;29;19930;-77
2022/12/19 10:30:34;;;;;;;;;;;6.70;99.90;;;;;;4862487;29;20153;-77
2022/12/19 10:33:09;;;;;;;;;;;6.80;99.90;;;;;;4863110;29;20361;-76
2022/12/19 10:35:42;;;;;;;;;;;6.80;99.90;;;;;;4878348;29;20010;-76
2022/12/19 10:38:21;;;;;;;;;;;6.90;99.90;;;;;;4884093;29;20530;-76
2022/12/19 10:40:49;;;;;;;;;;;6.90;99.90;;;;;;4862041;29;19946;-76
2022/12/19 10:43:26;;;;;;;;;;;6.90;99.90;;;;;;4859789;29;19971;-76
2022/12/19 10:45:54;;;;;;;;;;;7.00;99.90;;;;;;4853425;29;19927;-76
2022/12/19 10:48:21;;;;;;;;;;;7.10;99.90;;;;;;4873409;29;19923;-76
2022/12/19 10:50:47;;;;;;;;;;;7.10;99.90;;;;;;4874479;29;19927;-76
2022/12/19 10:53:13;;;;;;;;;;;7.10;99.90;;;;;;4874905;29;19932;-76
2022/12/19 10:55:42;;;;;;;;;;;7.10;99.90;;;;;;4873495;29;19961;-76
2022/12/19 10:58:17;;;;;;;;;;;7.10;99.90;;;;;;4859337;29;19987;-76
2022/12/19 11:01:01;;;;;;;;;;;7.20;99.90;;;;;;4872614;29;19935;-76
2022/12/19 11:03:27;;;;;;;;;;;7.20;99.90;;;;;;4859430;29;19935;-77
2022/12/19 11:05:54;;;;;;;;;;;7.20;99.90;;;;;;4856882;29;19924;-76
2022/12/19 11:08:23;;;;;;;;;;;7.20;99.90;;;;;;4859671;29;20379;-77
2022/12/19 11:10:53;;;;;;;;;;;7.30;99.90;;;;;;4871605;29;20157;-76
2022/12/19 11:13:21;;;;;;;;;;;7.30;99.90;;;;;;4856707;29;19927;-75
2022/12/19 11:15:47;;;;;;;;;;;7.30;99.90;;;;;;4874528;29;20299;-75
2022/12/19 11:18:15;;;;;;;;;;;7.30;99.90;;;;;;4863514;29;19924;-76
2022/12/19 11:20:52;;;;;;;;;;;7.30;99.90;;;;;;4856030;29;19970;-75
2022/12/19 11:23:17;;;;;;;;;;;7.40;99.90;;;;;;4874774;29;19971;-76
2022/12/19 11:25:51;;;;;;;;;;;7.40;99.90;;;;;;4845215;29;19967;-75
2022/12/19 11:28:23;;;;;;;;;;;7.40;99.90;;;;;;4874968;29;19928;-75
2022/12/19 11:31:01;;;;;;;;;;;7.50;99.90;;;;;;4859890;29;19924;-75
2022/12/19 11:33:27;;;;;;;;;;;7.50;99.90;;;;;;4874858;29;20583;-75
2022/12/19 11:35:53;;;;;;;;;;;7.50;99.90;;;;;;4850365;29;19967;-75
2022/12/19 11:38:26;;;;;;;;;;;7.60;99.90;;;;;;4856649;29;19930;-76
2022/12/19 11:40:54;;;;;;;;;;;7.60;99.90;;;;;;4867746;29;19932;-76
2022/12/19 11:43:24;;;;;;;;;;;7.60;99.90;;;;;;4858579;29;19958;-76
2022/12/19 11:45:50;;;;;;;;;;;7.60;99.90;;;;;;4875033;29;19923;-76
2022/12/19 11:48:20;;;;;;;;;;;7.60;99.90;;;;;;4856516;29;19934;-76
2022/12/19 11:51:04;;;;;;;;;;;7.60;99.90;;;;;;4856676;29;19975;-75
2022/12/19 11:53:41;;;;;;;;;;;7.70;99.90;;;;;;4850968;29;19984;-76
2022/12/19 11:56:13;;;;;;;;;;;7.70;99.90;;;;;;4862764;29;19923;-75
2022/12/19 11:58:38;;;;;;;;;;;7.60;99.90;;;;;;4870386;29;19927;-76
2022/12/19 12:01:24;;;;;;;;;;;7.70;99.90;;;;;;4857603;29;20022;-76
2022/12/19 12:03:59;;;;;;;;;;;7.70;99.90;;;;;;4854380;29;19947;-76
2022/12/19 12:06:29;;;;;;;;;;;7.60;99.90;;;;;;4873893;29;19978;-76
2022/12/19 12:08:58;;;;;;;;;;;7.60;99.90;;;;;;4858837;29;19967;-76
2022/12/19 12:11:27;;;;;;;;;;;7.60;99.90;;;;;;4865613;29;20011;-76
2022/12/19 12:13:55;;;;;;;;;;;7.60;99.90;;;;;;4858873;29;19967;-75
2022/12/19 12:16:24;;;;;;;;;;;7.60;99.90;;;;;;4857461;29;20019;-76
2022/12/19 12:19:11;;;;;;;;;;;7.60;99.90;;;;;;4851583;29;20018;-75
2022/12/19 12:21:44;;;;;;;;;;;7.70;99.90;;;;;;4856847;29;19932;-75
2022/12/19 12:24:12;;;;;;;;;;;7.70;99.90;;;;;;4859102;29;20427;-76
2022/12/19 12:26:41;;;;;;;;;;;7.70;99.90;;;;;;4856951;29;19923;-75
2022/12/19 12:29:09;;;;;;;;;;;7.70;99.90;;;;;;4872772;29;19932;-75
2022/12/19 12:31:35;;;;;;;;;;;7.70;99.90;;;;;;4858071;29;20411;-76
2022/12/19 12:34:04;;;;;;;;;;;7.70;99.90;;;;;;4868370;29;19924;-75
2022/12/19 12:36:48;;;;;;;;;;;7.70;99.90;;;;;;4872859;29;19950;-75
2022/12/19 12:39:27;;;;;;;;;;;7.70;99.90;;;;;;4856913;29;19971;-76
2022/12/19 12:42:11;;;;;;;;;;;7.70;99.90;;;;;;4865680;29;20019;-75
2022/12/19 12:44:38;;;;;;;;;;;7.70;99.90;;;;;;4858342;29;20281;-75
2022/12/19 12:47:21;;;;;;;;;;;7.70;99.90;;;;;;4858178;29;19935;-74
2022/12/19 12:49:50;;;;;;;;;;;7.70;99.90;;;;;;4858607;29;20285;-75
2022/12/19 12:52:17;;;;;;;;;;;7.70;99.90;;;;;;4872547;29;20295;-75
2022/12/19 12:54:45;;;;;;;;;;;7.70;99.90;;;;;;4873346;29;19924;-75
2022/12/19 12:57:16;;;;;;;;;;;7.70;99.90;;;;;;4880463;29;20377;-75
2022/12/19 12:59:43;;;;;;;;;;;7.70;99.90;;;;;;4861828;29;20014;-76
2022/12/19 13:02:15;;;;;;;;;;;7.70;99.90;;;;;;4854184;29;19928;-76
2022/12/19 13:04:42;;;;;;;;;;;7.70;99.90;;;;;;4873697;29;20376;-75
2022/12/19 13:07:26;;;;;;;;;;;7.70;99.90;;;;;;4854899;29;19924;-75
2022/12/19 13:10:01;;;;;;;;;;;7.70;99.90;;;;;;4856238;29;19929;-76
2022/12/19 13:15:26;;;;;;;;;;;7.70;99.90;;;;;;4871720;29;19932;-76
2022/12/19 13:17:52;;;;;;;;;;;7.70;99.90;;;;;;4856405;29;19924;-75
2022/12/19 13:20:17;;;;;;;;;;;7.70;99.90;;;;;;4871988;29;19928;-75
2022/12/19 13:23:01;;;;;;;;;;;7.60;99.90;;;;;;4868188;29;19931;-75
2022/12/19 13:25:33;;;;;;;;;;;7.60;99.90;;;;;;4856424;29;20356;-75
2022/12/19 13:28:02;;;;;;;;;;;7.70;99.90;;;;;;4853789;29;20440;-75
2022/12/19 13:30:31;;;;;;;;;;;7.70;99.90;;;;;;4870482;29;19942;-75
2022/12/19 13:33:00;;;;;;;;;;;7.70;99.90;;;;;;4853943;29;20033;-75
2022/12/19 13:35:26;;;;;;;;;;;7.70;99.90;;;;;;4847124;29;19924;-75
2022/12/19 13:37:59;;;;;;;;;;;7.70;99.90;;;;;;4856104;29;19930;-75
2022/12/19 13:40:25;;;;;;;;;;;7.70;99.90;;;;;;4857337;29;20022;-75
2022/12/19 13:45:46;;;;;;;;;;;7.70;99.90;;;;;;4872603;29;19951;-75
2022/12/19 13:48:14;;;;;;;;;;;7.70;99.90;;;;;;4871426;29;20313;-75
2022/12/19 13:50:40;;;;;;;;;;;7.70;99.90;;;;;;4857164;29;19924;-75
2022/12/19 13:53:24;;;;;;;;;;;7.70;99.90;;;;;;4842915;29;20003;-75
2022/12/19 13:55:54;;;;;;;;;;;7.70;99.90;;;;;;4871157;29;19924;-76
2022/12/19 13:58:25;;;;;;;;;;;7.70;99.90;;;;;;4872945;29;20112;-76
2022/12/19 14:00:52;;;;;;;;;;;7.70;99.90;;;;;;4871202;29;19928;-75
2022/12/19 14:03:20;;;;;;;;;;;7.70;99.90;;;;;;4857727;29;19959;-75
2022/12/19 14:05:45;;;;;;;;;;;7.70;99.90;;;;;;4857602;29;20369;-75
2022/12/19 14:08:15;;;;;;;;;;;7.70;99.90;;;;;;4862961;29;19947;-75
2022/12/19 14:10:43;;;;;;;;;;;7.70;99.90;;;;;;4871057;29;19923;-75
2022/12/19 14:15:57;;;;;;;;;;;7.70;99.90;;;;;;4874463;29;20380;-75
2022/12/19 14:18:27;;;;;;;;;;;7.70;99.90;;;;;;4867512;29;20002;-76
2022/12/19 14:21:12;;;;;;;;;;;7.70;99.90;;;;;;4874485;29;19935;-75
2022/12/19 14:23:38;;;;;;;;;;;7.70;99.90;;;;;;4879647;29;19923;-75
2022/12/19 14:26:07;;;;;;;;;;;7.70;99.90;;;;;;4844845;29;19982;-75
2022/12/19 14:28:41;;;;;;;;;;;7.70;99.90;;;;;;4867422;29;19946;-75
2022/12/19 14:31:09;;;;;;;;;;;7.70;99.90;;;;;;4873072;29;19940;-75
2022/12/19 14:33:37;;;;;;;;;;;7.70;99.90;;;;;;4858755;29;19950;-75
2022/12/19 14:36:03;;;;;;;;;;;7.70;99.90;;;;;;4857557;29;19931;-75
2022/12/19 14:38:33;;;;;;;;;;;7.60;99.90;;;;;;4881772;29;20425;-76
2022/12/19 14:41:00;;;;;;;;;;;7.60;99.90;;;;;;4863346;29;19948;-76
2022/12/19 14:43:39;;;;;;;;;;;7.60;99.90;;;;;;4856916;29;19971;-76
2022/12/19 14:46:10;;;;;;;;;;;7.50;99.90;;;;;;4857714;29;19932;-75